createdAt,value
2019-02-07T00:01:55.187Z,1537.90
2019-02-07T00:04:35.632Z,463.17
2019-02-07T00:26:55.112Z,317.40
2019-02-07T00:29:36.326Z,442.67
2019-02-07T00:32:16.728Z,269.63
2019-02-07T00:34:57.358Z,561.70
2019-02-07T00:37:38.299Z,795.60
2019-02-07T00:40:18.499Z,323.73
2019-02-07T00:42:59.539Z,367.80
2019-02-07T00:45:40.476Z,230.53
2019-02-07T00:48:21.435Z,235.50
2019-02-07T00:51:02.181Z,274.53
2019-02-07T00:53:43.021Z,987.17
2019-02-07T00:56:23.496Z,318.30
2019-02-07T00:59:04.467Z,226.33
2019-02-07T01:01:45.230Z,314.03
2019-02-07T01:04:25.673Z,199.57
2019-02-07T01:07:06.876Z,203.57
2019-02-07T01:09:47.831Z,201.13
2019-02-07T01:12:28.241Z,285.80
2019-02-07T01:15:09.468Z,354.03
2019-02-07T01:17:50.188Z,566.47
2019-02-07T01:20:31.226Z,260.17
2019-02-07T01:23:11.760Z,261.23
2019-02-07T01:25:51.721Z,266.33
2019-02-07T01:28:31.877Z,230.03
2019-02-07T01:31:12.762Z,215.20
2019-02-07T01:33:53.604Z,242.90
2019-02-07T01:36:34.303Z,332.43
2019-02-07T01:39:15.693Z,422.23
2019-02-07T01:41:55.950Z,390.83
2019-02-07T01:44:36.509Z,417.20
2019-02-07T01:47:17.199Z,664.10
2019-02-07T01:49:57.433Z,1089.00
2019-02-07T01:52:37.476Z,302.93
2019-02-07T01:55:18.292Z,516.77
2019-02-07T01:57:59.747Z,258.23
2019-02-07T02:00:40.396Z,654.03
2019-02-07T02:03:21.600Z,376.53
2019-02-07T02:06:01.640Z,276.47
2019-02-07T02:08:42.798Z,282.87
2019-02-07T02:11:23.879Z,269.97
2019-02-07T02:14:04.855Z,266.63
2019-02-07T02:16:45.116Z,259.17
2019-02-07T02:19:26.627Z,249.10
2019-02-07T02:22:08.005Z,247.43
2019-02-07T02:24:49.296Z,243.93
2019-02-07T02:27:30.339Z,212.77
2019-02-07T02:30:11.633Z,212.10
2019-02-07T02:32:52.607Z,197.50
2019-02-07T02:35:33.488Z,180.37
2019-02-07T02:38:13.901Z,177.30
2019-02-07T02:40:54.665Z,171.20
2019-02-07T02:43:35.510Z,168.97
2019-02-07T02:46:16.029Z,175.00
2019-02-07T02:48:56.711Z,170.07
2019-02-07T02:54:24.808Z,168.33
2019-02-07T02:57:05.270Z,165.83
2019-02-07T02:59:46.236Z,162.77
2019-02-07T03:02:26.628Z,156.80
2019-02-07T03:05:07.592Z,153.80
2019-02-07T03:07:48.831Z,159.67
2019-02-07T03:10:29.854Z,161.00
2019-02-07T03:13:11.060Z,160.73
2019-02-07T03:15:52.646Z,166.20
2019-02-07T03:18:33.296Z,162.10
2019-02-07T03:21:14.893Z,167.17
2019-02-07T03:23:55.620Z,181.70
2019-02-07T03:26:36.972Z,188.23
2019-02-07T03:29:18.182Z,190.07
2019-02-07T03:31:58.840Z,188.77
2019-02-07T03:34:39.816Z,206.70
2019-02-07T03:37:20.564Z,205.03
2019-02-07T03:40:01.173Z,211.97
2019-02-07T03:42:42.246Z,206.77
2019-02-07T03:45:22.546Z,196.97
2019-02-07T03:48:03.679Z,189.80
2019-02-07T03:50:44.603Z,191.67
2019-02-07T03:53:25.346Z,181.13
2019-02-07T03:56:06.482Z,192.47
2019-02-07T03:58:47.571Z,196.70
2019-02-07T04:01:28.516Z,207.37
2019-02-07T04:04:09.526Z,189.67
2019-02-07T04:06:49.950Z,167.33
2019-02-07T04:09:31.530Z,158.07
2019-02-07T04:12:11.824Z,148.40
2019-02-07T04:14:54.139Z,158.10
2019-02-07T04:17:34.530Z,145.13
2019-02-07T04:20:15.696Z,149.90
2019-02-07T04:22:56.464Z,134.07
2019-02-07T04:25:37.517Z,124.77
2019-02-07T04:28:18.195Z,122.27
2019-02-07T04:30:59.271Z,126.70
2019-02-07T04:33:39.390Z,126.10
2019-02-07T04:36:20.185Z,122.90
2019-02-07T04:39:00.960Z,124.60
2019-02-07T04:41:41.237Z,114.97
2019-02-07T04:44:21.582Z,107.50
2019-02-07T04:47:01.598Z,101.73
2019-02-07T04:49:42.764Z,96.40
2019-02-07T04:52:23.431Z,76.13
2019-02-07T04:55:03.465Z,82.03
2019-02-07T04:57:44.061Z,78.17
2019-02-07T05:00:24.838Z,87.73
2019-02-07T05:03:05.998Z,83.93
2019-02-07T05:05:46.892Z,83.67
2019-02-07T05:08:28.100Z,95.93
2019-02-07T05:11:09.019Z,92.97
2019-02-07T05:13:49.064Z,91.77
2019-02-07T05:16:39.161Z,101.93
2019-02-07T05:19:11.759Z,95.27
2019-02-07T05:21:52.720Z,102.33
2019-02-07T05:24:33.287Z,100.73
2019-02-07T05:27:13.654Z,103.33
2019-02-07T05:29:54.402Z,96.90
2019-02-07T05:32:36.246Z,93.83
2019-02-07T05:35:16.356Z,92.70
2019-02-07T05:37:57.632Z,84.07
2019-02-07T05:40:39.063Z,88.93
2019-02-07T05:43:20.126Z,93.50
2019-02-07T05:46:01.270Z,90.80
2019-02-07T05:48:41.966Z,94.77
2019-02-07T05:51:22.888Z,90.30
2019-02-07T05:54:03.820Z,91.20
2019-02-07T05:56:44.580Z,88.27
2019-02-07T05:59:25.541Z,94.83
2019-02-07T06:02:06.402Z,85.43
2019-02-07T06:04:46.780Z,91.90
2019-02-07T06:07:27.979Z,90.77
2019-02-07T06:10:08.717Z,91.97
2019-02-07T06:12:49.260Z,92.53
2019-02-07T06:15:30.229Z,83.20
2019-02-07T06:18:11.083Z,89.00
2019-02-07T06:20:51.777Z,90.47
2019-02-07T06:23:32.441Z,86.20
2019-02-07T06:26:13.431Z,87.30
2019-02-07T06:28:54.105Z,92.77
2019-02-07T06:31:35.484Z,90.33
2019-02-07T06:34:15.833Z,83.47
2019-02-07T06:36:57.278Z,87.03
2019-02-07T06:39:38.312Z,84.97
2019-02-07T06:42:18.990Z,89.27
2019-02-07T06:45:00.236Z,81.83
2019-02-07T06:47:41.091Z,103.63
2019-02-07T06:50:22.138Z,87.83
2019-02-07T06:53:03.088Z,75.67
2019-02-07T06:55:44.009Z,76.57
2019-02-07T06:58:25.251Z,77.53
2019-02-07T07:01:05.977Z,80.13
2019-02-07T07:03:47.192Z,85.00
2019-02-07T07:06:27.629Z,76.83
2019-02-07T07:09:08.687Z,75.93
2019-02-07T07:11:49.813Z,72.23
2019-02-07T07:14:30.254Z,114.13
2019-02-07T07:17:11.123Z,81.93
2019-02-07T07:19:51.978Z,115.57
2019-02-07T07:22:32.993Z,72.87
2019-02-07T07:25:13.652Z,74.97
2019-02-07T07:27:54.612Z,76.07
2019-02-07T07:30:35.185Z,108.43
2019-02-07T07:33:16.234Z,73.60
2019-02-07T07:35:57.168Z,71.37
2019-02-07T07:38:37.835Z,81.37
2019-02-07T07:41:18.727Z,72.40
2019-02-07T07:43:59.434Z,72.93
2019-02-07T07:46:39.773Z,76.90
2019-02-07T07:49:20.642Z,75.70
2019-02-07T07:52:01.622Z,67.27
2019-02-07T07:54:42.839Z,67.57
2019-02-07T07:57:23.849Z,73.87
2019-02-07T08:00:05.153Z,86.30
2019-02-07T08:02:45.727Z,75.53
2019-02-07T08:08:02.945Z,70.67
2019-02-07T08:10:44.113Z,101.73
2019-02-07T08:13:24.557Z,81.67
2019-02-07T08:16:06.132Z,79.93
2019-02-07T08:18:47.084Z,72.67
2019-02-07T08:21:28.101Z,71.30
2019-02-07T08:24:09.347Z,86.90
2019-02-07T08:26:50.143Z,71.13
2019-02-07T08:29:31.513Z,75.00
2019-02-07T08:32:12.945Z,82.57
2019-02-07T08:34:54.378Z,76.07
2019-02-07T08:37:35.385Z,72.00
2019-02-07T08:40:16.394Z,73.00
2019-02-07T08:42:57.318Z,74.97
2019-02-07T08:45:38.186Z,77.30
2019-02-07T08:48:18.853Z,81.90
2019-02-07T08:50:59.833Z,81.50
2019-02-07T08:53:41.115Z,79.67
2019-02-07T08:56:22.124Z,74.37
2019-02-07T08:59:03.187Z,75.57
2019-02-07T09:01:44.268Z,75.90
2019-02-07T09:04:25.546Z,68.83
2019-02-07T09:07:06.609Z,74.00
2019-02-07T09:09:47.294Z,78.10
2019-02-07T09:12:28.416Z,70.00
2019-02-07T09:15:08.776Z,71.33
2019-02-07T09:17:49.620Z,69.23
2019-02-07T09:20:31.006Z,77.27
2019-02-07T09:23:11.462Z,70.07
2019-02-07T09:25:52.079Z,72.37
2019-02-07T09:43:34.353Z,69.70
2019-02-07T09:46:15.076Z,71.33
2019-02-07T09:48:55.938Z,79.37
2019-02-07T09:51:36.656Z,69.57
2019-02-07T09:54:17.539Z,70.50
2019-02-07T09:56:58.564Z,68.50
2019-02-07T09:59:39.793Z,70.07
2019-02-07T10:02:20.815Z,68.07
2019-02-07T10:05:01.407Z,88.77
2019-02-07T10:07:42.139Z,76.47
2019-02-07T10:10:23.004Z,79.17
2019-02-07T10:13:03.991Z,94.80
2019-02-07T10:15:44.677Z,78.00
2019-02-07T10:18:32.826Z,73.70
2019-02-07T10:21:07.946Z,71.20
2019-02-07T10:23:49.450Z,73.17
2019-02-07T10:26:30.662Z,69.80
2019-02-07T10:29:11.592Z,70.63
2019-02-07T10:31:53.238Z,71.83
2019-02-07T10:34:33.768Z,70.20
2019-02-07T10:37:15.132Z,70.27
2019-02-07T10:39:55.918Z,69.50
2019-02-07T10:42:36.885Z,69.37
2019-02-07T10:45:17.834Z,72.13
2019-02-07T10:47:59.121Z,85.93
2019-02-07T10:50:40.283Z,71.73
2019-02-07T10:53:20.763Z,76.57
2019-02-07T10:56:01.760Z,76.80
2019-02-07T10:58:42.286Z,81.83
2019-02-07T11:01:22.575Z,83.93
2019-02-07T11:04:03.479Z,77.83
2019-02-07T11:06:44.563Z,83.33
2019-02-07T11:09:25.155Z,88.73
2019-02-07T11:12:05.779Z,81.57
2019-02-07T11:14:46.735Z,85.13
2019-02-07T11:17:27.486Z,85.30
2019-02-07T11:20:08.482Z,78.30
2019-02-07T11:22:48.651Z,81.63
2019-02-07T11:25:29.575Z,80.17
2019-02-07T11:28:10.960Z,83.57
2019-02-07T11:30:51.827Z,83.40
2019-02-07T11:33:32.845Z,87.00
2019-02-07T11:36:13.487Z,84.50
2019-02-07T11:38:53.977Z,75.20
2019-02-07T11:41:34.278Z,78.63
2019-02-07T11:44:14.872Z,84.83
2019-02-07T11:47:05.146Z,80.17
2019-02-07T11:49:37.755Z,79.53
2019-02-07T11:52:18.641Z,79.53
2019-02-07T11:54:59.292Z,87.23
2019-02-07T11:57:39.751Z,82.20
2019-02-07T12:00:20.912Z,82.97
2019-02-07T12:03:01.613Z,88.53
2019-02-07T12:05:42.870Z,88.13
2019-02-07T12:08:23.422Z,92.97
2019-02-07T12:11:04.409Z,83.40
2019-02-07T12:13:44.992Z,92.10
2019-02-07T12:16:25.849Z,82.90
2019-02-07T12:19:17.506Z,83.70
2019-02-07T12:21:48.630Z,87.07
2019-02-07T12:24:29.185Z,90.87
2019-02-07T12:27:09.542Z,88.50
2019-02-07T12:29:50.447Z,89.87
2019-02-07T12:32:31.479Z,91.40
2019-02-07T12:35:12.141Z,88.37
2019-02-07T12:37:53.113Z,89.43
2019-02-07T12:40:34.266Z,97.53
2019-02-07T12:43:15.260Z,90.57
2019-02-07T14:59:06.617Z,177.07
2019-02-07T15:01:48.702Z,183.10
2019-02-07T15:11:36.067Z,195.27
2019-02-07T15:14:21.016Z,195.93
2019-02-07T15:17:02.371Z,185.37
2019-02-07T15:19:44.154Z,179.80
2019-02-07T15:22:29.420Z,173.00
2019-02-07T15:25:12.909Z,184.47
2019-02-07T15:27:59.126Z,185.77
2019-02-07T15:30:46.493Z,183.80
2019-02-07T15:33:32.235Z,187.07
2019-02-07T15:36:15.192Z,203.23
2019-02-07T15:38:57.572Z,199.60
2019-02-07T15:41:43.602Z,201.43
2019-02-07T15:44:25.741Z,198.37
2019-02-07T15:47:08.751Z,178.17
2019-02-07T15:49:50.487Z,184.50
2019-02-07T15:52:31.052Z,182.87
2019-02-07T15:55:11.934Z,190.60
2019-02-07T15:57:53.213Z,194.20
2019-02-07T16:00:34.210Z,205.63
2019-02-07T16:03:15.579Z,213.83
2019-02-07T16:05:56.837Z,217.80
2019-02-07T16:08:37.300Z,214.60
2019-02-07T16:11:18.161Z,208.00
2019-02-07T16:13:59.432Z,222.30
2019-02-07T16:16:40.420Z,196.73
2019-02-07T16:19:21.367Z,217.23
2019-02-07T16:22:02.249Z,217.30
2019-02-07T16:24:43.322Z,222.90
2019-02-07T16:27:24.336Z,213.23
2019-02-07T16:30:04.901Z,228.27
2019-02-07T16:32:45.156Z,221.63
2019-02-07T16:35:25.512Z,238.70
2019-02-07T16:38:06.257Z,256.23
2019-02-07T16:40:48.684Z,244.40
2019-02-07T16:43:29.197Z,231.07
2019-02-07T16:46:10.338Z,249.80
2019-02-07T16:48:50.918Z,254.07
2019-02-07T16:51:31.960Z,256.80
2019-02-07T16:54:12.638Z,253.50
2019-02-07T16:56:53.625Z,257.83
2019-02-07T16:59:34.573Z,247.50
2019-02-07T17:02:15.141Z,239.97
2019-02-07T17:04:55.797Z,255.37
2019-02-07T17:07:38.933Z,241.53
2019-02-07T17:10:20.281Z,249.27
2019-02-07T17:13:05.533Z,241.37
2019-02-07T17:15:47.863Z,254.77
2019-02-07T17:18:28.541Z,257.77
2019-02-07T17:21:11.841Z,269.13
2019-02-07T17:23:50.843Z,254.83
2019-02-07T17:26:31.793Z,238.27
2019-02-07T17:32:24.651Z,244.63
2019-02-07T17:35:05.445Z,234.37
2019-02-07T17:37:45.488Z,247.63
2019-02-07T17:43:10.198Z,224.43
2019-02-07T17:46:00.343Z,224.60
2019-02-07T17:48:42.592Z,237.57
2019-02-07T17:51:23.603Z,241.90
2019-02-07T17:54:04.538Z,232.17
2019-02-07T17:56:45.291Z,248.87
2019-02-07T17:59:26.476Z,245.03
2019-02-07T18:02:07.403Z,229.27
2019-02-07T18:04:48.461Z,231.80
2019-02-07T18:07:29.674Z,225.30
2019-02-07T18:10:10.358Z,226.03
2019-02-07T18:12:51.124Z,237.03
2019-02-07T18:15:32.209Z,237.10
2019-02-07T18:18:12.482Z,229.30
2019-02-07T18:20:53.243Z,222.57
2019-02-07T18:23:34.447Z,227.17
2019-02-07T18:26:14.870Z,225.30
2019-02-07T18:28:56.154Z,223.43
2019-02-07T18:31:36.738Z,226.13
2019-02-07T18:34:17.960Z,251.90
2019-02-07T18:36:58.907Z,260.60
2019-02-07T18:39:39.900Z,258.17
2019-02-07T18:42:20.931Z,255.83
2019-02-07T18:45:01.670Z,249.53
2019-02-07T18:47:44.914Z,255.10
2019-02-07T18:50:25.807Z,252.83
2019-02-07T18:53:06.555Z,259.23
2019-02-07T18:55:47.678Z,266.20
2019-02-07T18:58:29.060Z,284.43
2019-02-07T19:01:09.833Z,280.37
2019-02-07T19:03:50.915Z,273.90
2019-02-07T19:06:32.120Z,258.40
2019-02-07T19:09:13.016Z,243.47
2019-02-07T19:11:53.632Z,251.80
2019-02-07T19:14:34.937Z,268.73
2019-02-07T19:17:15.865Z,268.00
2019-02-07T19:19:57.225Z,259.27
2019-02-07T19:22:38.494Z,251.33
2019-02-07T19:25:18.953Z,240.37
2019-02-07T19:27:59.835Z,224.03
2019-02-07T19:30:40.586Z,232.27
2019-02-07T19:33:22.568Z,226.37
2019-02-07T19:36:03.230Z,238.67
2019-02-07T19:38:44.275Z,247.27
2019-02-07T19:41:24.937Z,291.27
2019-02-07T19:44:05.888Z,301.70
2019-02-07T19:46:46.751Z,277.90
2019-02-07T19:49:27.759Z,273.93
2019-02-07T19:52:09.153Z,256.33
2019-02-07T19:54:50.297Z,268.80
2019-02-07T19:57:31.327Z,267.37
2019-02-07T20:00:12.283Z,273.83
2019-02-07T20:02:53.569Z,258.97
2019-02-07T20:05:34.878Z,270.53
2019-02-07T20:08:16.317Z,238.90
2019-02-07T20:10:57.389Z,241.10
2019-02-07T20:13:38.351Z,241.27
2019-02-07T20:16:19.496Z,240.30
2019-02-07T20:19:01.013Z,237.17
2019-02-07T20:21:42.512Z,228.33
2019-02-07T20:24:23.185Z,227.00
2019-02-07T20:27:04.202Z,208.60
2019-02-07T20:29:45.352Z,225.73
2019-02-07T20:32:27.887Z,221.23
2019-02-07T20:35:09.203Z,224.47
2019-02-07T20:37:49.859Z,235.50
2019-02-07T20:40:30.989Z,217.47
2019-02-07T20:43:12.698Z,213.83
2019-02-07T20:45:53.415Z,209.10
2019-02-07T20:48:34.187Z,219.90
2019-02-07T20:51:14.812Z,227.30
2019-02-07T20:53:56.224Z,229.70
2019-02-07T20:56:36.703Z,233.50
2019-02-07T20:59:17.893Z,227.27
2019-02-07T21:01:58.513Z,224.37
2019-02-07T21:04:39.093Z,219.27
2019-02-07T21:07:20.065Z,228.50
2019-02-07T21:10:00.743Z,216.53
2019-02-07T21:12:41.522Z,211.23
2019-02-07T21:15:22.362Z,226.03
2019-02-07T21:18:03.057Z,222.23
2019-02-07T21:20:43.868Z,224.53
2019-02-07T21:23:24.687Z,202.80
2019-02-07T21:26:06.118Z,201.53
2019-02-07T21:28:46.516Z,208.77
2019-02-07T21:31:28.754Z,222.40
2019-02-07T21:34:09.904Z,207.00
2019-02-07T21:36:50.916Z,207.27
2019-02-07T21:39:32.345Z,203.50
2019-02-07T21:42:13.538Z,212.47
2019-02-07T21:44:54.153Z,211.57
2019-02-07T21:47:34.490Z,205.17
2019-02-07T21:50:14.813Z,200.00
2019-02-07T21:52:55.582Z,193.60
2019-02-07T21:55:36.665Z,197.00
2019-02-07T21:58:17.117Z,191.07
2019-02-07T22:00:57.997Z,209.10
2019-02-07T22:03:38.918Z,216.83
2019-02-07T22:06:19.933Z,213.03
2019-02-07T22:09:00.868Z,215.23
2019-02-07T22:11:41.471Z,203.40
2019-02-07T22:14:22.746Z,207.37
2019-02-07T22:17:03.661Z,204.30
2019-02-07T22:19:44.479Z,205.07
2019-02-07T22:22:25.407Z,204.50
2019-02-07T22:25:06.940Z,216.93
2019-02-07T22:27:48.379Z,227.37
2019-02-07T22:30:29.566Z,223.37
2019-02-07T22:33:10.458Z,227.87
2019-02-07T22:35:51.187Z,211.47
2019-02-07T22:38:32.057Z,215.23
2019-02-07T22:41:13.351Z,217.57
2019-02-07T22:43:54.443Z,216.43
2019-02-07T22:46:35.698Z,208.73
2019-02-07T22:49:16.529Z,213.37
2019-02-07T22:54:42.763Z,210.93
2019-02-07T22:57:23.598Z,223.70
2019-02-07T23:00:04.810Z,218.13
2019-02-07T23:02:45.605Z,208.77
2019-02-07T23:05:26.493Z,205.13
2019-02-07T23:08:07.409Z,202.00
2019-02-07T23:10:49.014Z,203.87
2019-02-07T23:13:30.340Z,208.07
2019-02-07T23:16:11.603Z,217.47
2019-02-07T23:18:52.666Z,208.80
2019-02-07T23:21:33.383Z,209.80
2019-02-07T23:24:14.496Z,204.10
2019-02-07T23:26:55.754Z,210.13
2019-02-07T23:29:36.814Z,202.50
2019-02-07T23:32:17.598Z,198.00
2019-02-07T23:34:58.623Z,194.57
2019-02-07T23:37:39.577Z,195.30
2019-02-07T23:40:20.583Z,191.90
2019-02-07T23:43:02.244Z,205.17
2019-02-07T23:45:43.532Z,211.73
2019-02-07T23:48:24.584Z,210.47
2019-02-07T23:51:05.679Z,207.37
2019-02-07T23:53:46.693Z,202.90
2019-02-07T23:56:27.366Z,201.27
2019-02-07T23:59:08.935Z,193.50
